sensor_id;sensor_type;location;lat;lon;timestamp;P1;durP1;ratioP1;P2;durP2;ratioP2
56457;SDS011;42360;42.918;12.366;2023-06-26T00:00:17;3.45;;;2.03;;
56457;SDS011;42360;42.918;12.366;2023-06-26T00:02:43;2.90;;;2.53;;
56457;SDS011;42360;42.918;12.366;2023-06-26T00:05:08;4.35;;;2.55;;
56457;SDS011;42360;42.918;12.366;2023-06-26T00:07:34;2.72;;;2.42;;
56457;SDS011;42360;42.918;12.366;2023-06-26T00:10:00;3.35;;;2.30;;
56457;SDS011;42360;42.918;12.366;2023-06-26T00:12:26;2.65;;;2.38;;
56457;SDS011;42360;42.918;12.366;2023-06-26T00:14:52;4.00;;;2.70;;
56457;SDS011;42360;42.918;12.366;2023-06-26T00:17:17;2.88;;;2.58;;
56457;SDS011;42360;42.918;12.366;2023-06-26T00:19:43;3.63;;;2.35;;
56457;SDS011;42360;42.918;12.366;2023-06-26T00:22:08;4.40;;;2.83;;
56457;SDS011;42360;42.918;12.366;2023-06-26T00:24:34;3.10;;;2.47;;
56457;SDS011;42360;42.918;12.366;2023-06-26T00:26:59;2.88;;;2.40;;
56457;SDS011;42360;42.918;12.366;2023-06-26T00:29:25;3.67;;;2.67;;
56457;SDS011;42360;42.918;12.366;2023-06-26T00:31:50;4.40;;;2.80;;
56457;SDS011;42360;42.918;12.366;2023-06-26T00:34:16;3.80;;;2.55;;
56457;SDS011;42360;42.918;12.366;2023-06-26T00:36:41;4.85;;;2.67;;
56457;SDS011;42360;42.918;12.366;2023-06-26T00:39:09;3.78;;;2.50;;
56457;SDS011;42360;42.918;12.366;2023-06-26T00:41:35;2.60;;;2.40;;
56457;SDS011;42360;42.918;12.366;2023-06-26T00:44:04;3.67;;;2.60;;
56457;SDS011;42360;42.918;12.366;2023-06-26T00:46:30;3.10;;;2.60;;
56457;SDS011;42360;42.918;12.366;2023-06-26T00:48:56;3.13;;;2.53;;
56457;SDS011;42360;42.918;12.366;2023-06-26T00:51:24;5.18;;;2.80;;
56457;SDS011;42360;42.918;12.366;2023-06-26T00:53:51;3.72;;;2.25;;
56457;SDS011;42360;42.918;12.366;2023-06-26T00:56:17;2.47;;;2.28;;
56457;SDS011;42360;42.918;12.366;2023-06-26T00:58:43;2.70;;;2.28;;
56457;SDS011;42360;42.918;12.366;2023-06-26T01:01:09;2.38;;;2.10;;
56457;SDS011;42360;42.918;12.366;2023-06-26T01:03:40;3.90;;;2.40;;
56457;SDS011;42360;42.918;12.366;2023-06-26T01:06:06;3.35;;;2.58;;
56457;SDS011;42360;42.918;12.366;2023-06-26T01:08:35;3.22;;;2.53;;
56457;SDS011;42360;42.918;12.366;2023-06-26T01:11:00;3.42;;;2.60;;
56457;SDS011;42360;42.918;12.366;2023-06-26T01:13:26;3.10;;;2.70;;
56457;SDS011;42360;42.918;12.366;2023-06-26T01:15:53;3.20;;;2.63;;
56457;SDS011;42360;42.918;12.366;2023-06-26T01:18:19;4.22;;;2.50;;
56457;SDS011;42360;42.918;12.366;2023-06-26T01:20:44;3.13;;;2.42;;
56457;SDS011;42360;42.918;12.366;2023-06-26T01:23:24;2.80;;;2.40;;
56457;SDS011;42360;42.918;12.366;2023-06-26T01:28:24;2.92;;;2.38;;
56457;SDS011;42360;42.918;12.366;2023-06-26T01:30:50;2.50;;;2.30;;
56457;SDS011;42360;42.918;12.366;2023-06-26T01:33:16;4.47;;;2.78;;
56457;SDS011;42360;42.918;12.366;2023-06-26T01:35:42;4.32;;;2.55;;
56457;SDS011;42360;42.918;12.366;2023-06-26T01:38:17;3.17;;;2.38;;
56457;SDS011;42360;42.918;12.366;2023-06-26T01:40:44;3.92;;;3.20;;
56457;SDS011;42360;42.918;12.366;2023-06-26T01:43:24;3.90;;;2.78;;
56457;SDS011;42360;42.918;12.366;2023-06-26T01:45:51;4.20;;;2.53;;
56457;SDS011;42360;42.918;12.366;2023-06-26T01:48:21;2.67;;;2.25;;
56457;SDS011;42360;42.918;12.366;2023-06-26T01:50:50;3.25;;;2.67;;
56457;SDS011;42360;42.918;12.366;2023-06-26T01:53:17;4.78;;;2.70;;
56457;SDS011;42360;42.918;12.366;2023-06-26T01:58:17;4.00;;;2.65;;
56457;SDS011;42360;42.918;12.366;2023-06-26T02:00:45;3.65;;;2.40;;
56457;SDS011;42360;42.918;12.366;2023-06-26T02:03:11;3.97;;;2.50;;
56457;SDS011;42360;42.918;12.366;2023-06-26T02:05:36;3.78;;;2.67;;
56457;SDS011;42360;42.918;12.366;2023-06-26T02:08:02;2.88;;;2.58;;
56457;SDS011;42360;42.918;12.366;2023-06-26T02:10:28;3.47;;;2.22;;
56457;SDS011;42360;42.918;12.366;2023-06-26T02:12:53;3.53;;;2.38;;
56457;SDS011;42360;42.918;12.366;2023-06-26T02:15:19;3.60;;;2.42;;
56457;SDS011;42360;42.918;12.366;2023-06-26T02:17:44;3.45;;;2.72;;
56457;SDS011;42360;42.918;12.366;2023-06-26T02:20:13;3.38;;;2.60;;
56457;SDS011;42360;42.918;12.366;2023-06-26T02:22:41;3.20;;;2.45;;
56457;SDS011;42360;42.918;12.366;2023-06-26T02:25:07;2.95;;;2.60;;
56457;SDS011;42360;42.918;12.366;2023-06-26T02:27:33;2.92;;;2.60;;
56457;SDS011;42360;42.918;12.366;2023-06-26T02:29:59;2.88;;;2.33;;
56457;SDS011;42360;42.918;12.366;2023-06-26T02:32:24;3.47;;;2.70;;
56457;SDS011;42360;42.918;12.366;2023-06-26T02:34:50;3.10;;;2.45;;
56457;SDS011;42360;42.918;12.366;2023-06-26T02:37:18;3.90;;;2.47;;
56457;SDS011;42360;42.918;12.366;2023-06-26T02:39:44;2.88;;;2.30;;
56457;SDS011;42360;42.918;12.366;2023-06-26T02:42:10;3.80;;;2.40;;
56457;SDS011;42360;42.918;12.366;2023-06-26T02:44:35;3.40;;;2.50;;
56457;SDS011;42360;42.918;12.366;2023-06-26T02:47:01;4.47;;;2.65;;
56457;SDS011;42360;42.918;12.366;2023-06-26T02:49:26;3.58;;;2.50;;
56457;SDS011;42360;42.918;12.366;2023-06-26T02:51:51;4.25;;;2.55;;
56457;SDS011;42360;42.918;12.366;2023-06-26T02:54:17;3.58;;;2.60;;
56457;SDS011;42360;42.918;12.366;2023-06-26T02:56:42;4.22;;;2.85;;
56457;SDS011;42360;42.918;12.366;2023-06-26T02:59:08;3.30;;;2.45;;
56457;SDS011;42360;42.918;12.366;2023-06-26T03:01:33;3.70;;;2.60;;
56457;SDS011;42360;42.918;12.366;2023-06-26T03:03:59;2.58;;;2.28;;
56457;SDS011;42360;42.918;12.366;2023-06-26T03:06:26;3.03;;;2.60;;
56457;SDS011;42360;42.918;12.366;2023-06-26T03:08:52;3.50;;;2.67;;
56457;SDS011;42360;42.918;12.366;2023-06-26T03:11:18;3.08;;;2.70;;
56457;SDS011;42360;42.918;12.366;2023-06-26T03:13:43;3.40;;;3.08;;
56457;SDS011;42360;42.918;12.366;2023-06-26T03:16:09;3.97;;;2.95;;
56457;SDS011;42360;42.918;12.366;2023-06-26T03:18:34;3.03;;;2.67;;
56457;SDS011;42360;42.918;12.366;2023-06-26T03:21:00;3.10;;;2.55;;
56457;SDS011;42360;42.918;12.366;2023-06-26T03:23:25;4.72;;;2.72;;
56457;SDS011;42360;42.918;12.366;2023-06-26T03:25:51;3.47;;;2.92;;
56457;SDS011;42360;42.918;12.366;2023-06-26T03:28:16;3.72;;;2.65;;
56457;SDS011;42360;42.918;12.366;2023-06-26T03:30:42;3.80;;;2.45;;
56457;SDS011;42360;42.918;12.366;2023-06-26T03:33:08;4.28;;;3.40;;
56457;SDS011;42360;42.918;12.366;2023-06-26T03:35:33;2.90;;;2.45;;
56457;SDS011;42360;42.918;12.366;2023-06-26T03:37:59;5.70;;;2.90;;
56457;SDS011;42360;42.918;12.366;2023-06-26T03:40:25;4.72;;;2.90;;
56457;SDS011;42360;42.918;12.366;2023-06-26T03:42:51;3.03;;;2.40;;
56457;SDS011;42360;42.918;12.366;2023-06-26T03:45:16;4.13;;;2.80;;
56457;SDS011;42360;42.918;12.366;2023-06-26T03:47:43;4.63;;;2.60;;
56457;SDS011;42360;42.918;12.366;2023-06-26T03:50:09;3.92;;;2.70;;
56457;SDS011;42360;42.918;12.366;2023-06-26T03:52:35;3.50;;;2.47;;
56457;SDS011;42360;42.918;12.366;2023-06-26T03:55:00;4.63;;;2.85;;
56457;SDS011;42360;42.918;12.366;2023-06-26T03:57:26;3.53;;;2.78;;
56457;SDS011;42360;42.918;12.366;2023-06-26T03:59:51;4.25;;;3.05;;
56457;SDS011;42360;42.918;12.366;2023-06-26T04:02:17;3.50;;;2.83;;
56457;SDS011;42360;42.918;12.366;2023-06-26T04:04:43;4.13;;;2.92;;
56457;SDS011;42360;42.918;12.366;2023-06-26T04:07:09;4.93;;;2.90;;
56457;SDS011;42360;42.918;12.366;2023-06-26T04:09:34;5.68;;;3.20;;
56457;SDS011;42360;42.918;12.366;2023-06-26T04:12:00;6.60;;;3.17;;
56457;SDS011;42360;42.918;12.366;2023-06-26T04:14:25;4.47;;;2.75;;
56457;SDS011;42360;42.918;12.366;2023-06-26T04:16:51;3.08;;;2.55;;
56457;SDS011;42360;42.918;12.366;2023-06-26T04:19:16;4.07;;;2.53;;
56457;SDS011;42360;42.918;12.366;2023-06-26T04:21:42;4.90;;;2.40;;
56457;SDS011;42360;42.918;12.366;2023-06-26T04:24:07;4.80;;;2.92;;
56457;SDS011;42360;42.918;12.366;2023-06-26T04:26:33;4.28;;;2.95;;
56457;SDS011;42360;42.918;12.366;2023-06-26T04:28:58;5.15;;;3.13;;
56457;SDS011;42360;42.918;12.366;2023-06-26T04:31:24;5.68;;;3.05;;
56457;SDS011;42360;42.918;12.366;2023-06-26T04:33:50;3.70;;;2.75;;
56457;SDS011;42360;42.918;12.366;2023-06-26T04:36:16;3.50;;;2.85;;
56457;SDS011;42360;42.918;12.366;2023-06-26T04:38:42;4.70;;;3.15;;
56457;SDS011;42360;42.918;12.366;2023-06-26T04:41:08;4.55;;;3.13;;
56457;SDS011;42360;42.918;12.366;2023-06-26T04:43:33;4.85;;;2.90;;
56457;SDS011;42360;42.918;12.366;2023-06-26T04:45:59;4.53;;;2.92;;
56457;SDS011;42360;42.918;12.366;2023-06-26T04:48:24;4.65;;;3.00;;
56457;SDS011;42360;42.918;12.366;2023-06-26T04:50:52;4.03;;;3.03;;
56457;SDS011;42360;42.918;12.366;2023-06-26T04:53:22;5.00;;;3.40;;
56457;SDS011;42360;42.918;12.366;2023-06-26T04:55:51;4.07;;;2.92;;
56457;SDS011;42360;42.918;12.366;2023-06-26T04:58:17;6.07;;;3.15;;
56457;SDS011;42360;42.918;12.366;2023-06-26T05:00:43;4.03;;;3.13;;
56457;SDS011;42360;42.918;12.366;2023-06-26T05:03:12;4.53;;;3.85;;
56457;SDS011;42360;42.918;12.366;2023-06-26T05:05:38;8.13;;;3.90;;
56457;SDS011;42360;42.918;12.366;2023-06-26T05:10:48;3.50;;;2.83;;
56457;SDS011;42360;42.918;12.366;2023-06-26T05:13:14;4.50;;;3.10;;
56457;SDS011;42360;42.918;12.366;2023-06-26T05:15:43;5.55;;;3.00;;
56457;SDS011;42360;42.918;12.366;2023-06-26T05:18:09;5.75;;;3.40;;
56457;SDS011;42360;42.918;12.366;2023-06-26T05:20:35;4.93;;;3.15;;
56457;SDS011;42360;42.918;12.366;2023-06-26T05:23:04;3.75;;;3.13;;
56457;SDS011;42360;42.918;12.366;2023-06-26T05:25:30;6.25;;;3.20;;
56457;SDS011;42360;42.918;12.366;2023-06-26T05:27:57;3.90;;;3.20;;
56457;SDS011;42360;42.918;12.366;2023-06-26T05:30:23;8.70;;;3.42;;
56457;SDS011;42360;42.918;12.366;2023-06-26T05:32:54;4.97;;;3.20;;
56457;SDS011;42360;42.918;12.366;2023-06-26T05:35:20;4.93;;;3.22;;
56457;SDS011;42360;42.918;12.366;2023-06-26T05:37:48;8.73;;;3.58;;
56457;SDS011;42360;42.918;12.366;2023-06-26T05:40:15;5.95;;;4.35;;
56457;SDS011;42360;42.918;12.366;2023-06-26T05:42:44;5.25;;;2.92;;
56457;SDS011;42360;42.918;12.366;2023-06-26T05:45:09;6.10;;;3.00;;
56457;SDS011;42360;42.918;12.366;2023-06-26T05:47:35;5.68;;;3.40;;
56457;SDS011;42360;42.918;12.366;2023-06-26T05:50:01;5.35;;;3.40;;
56457;SDS011;42360;42.918;12.366;2023-06-26T05:52:27;5.20;;;3.17;;
56457;SDS011;42360;42.918;12.366;2023-06-26T05:54:53;5.65;;;3.22;;
56457;SDS011;42360;42.918;12.366;2023-06-26T05:57:19;5.05;;;3.58;;
56457;SDS011;42360;42.918;12.366;2023-06-26T05:59:45;4.50;;;3.17;;
56457;SDS011;42360;42.918;12.366;2023-06-26T06:02:11;4.95;;;3.25;;
56457;SDS011;42360;42.918;12.366;2023-06-26T06:04:37;4.05;;;3.03;;
56457;SDS011;42360;42.918;12.366;2023-06-26T06:07:03;4.63;;;2.88;;
56457;SDS011;42360;42.918;12.366;2023-06-26T06:09:29;5.43;;;3.28;;
56457;SDS011;42360;42.918;12.366;2023-06-26T06:11:54;5.05;;;3.55;;
56457;SDS011;42360;42.918;12.366;2023-06-26T06:14:20;4.97;;;3.30;;
56457;SDS011;42360;42.918;12.366;2023-06-26T06:16:45;3.75;;;3.30;;
56457;SDS011;42360;42.918;12.366;2023-06-26T06:19:11;4.43;;;3.40;;
56457;SDS011;42360;42.918;12.366;2023-06-26T06:21:38;5.80;;;3.20;;
56457;SDS011;42360;42.918;12.366;2023-06-26T06:24:04;5.80;;;3.72;;
56457;SDS011;42360;42.918;12.366;2023-06-26T06:26:30;7.05;;;4.30;;
56457;SDS011;42360;42.918;12.366;2023-06-26T06:28:55;7.03;;;3.95;;
56457;SDS011;42360;42.918;12.366;2023-06-26T06:31:20;6.65;;;4.60;;
56457;SDS011;42360;42.918;12.366;2023-06-26T06:33:46;6.45;;;3.38;;
56457;SDS011;42360;42.918;12.366;2023-06-26T06:36:11;6.40;;;3.47;;
56457;SDS011;42360;42.918;12.366;2023-06-26T06:38:37;4.43;;;3.55;;
56457;SDS011;42360;42.918;12.366;2023-06-26T06:41:02;7.38;;;3.70;;
56457;SDS011;42360;42.918;12.366;2023-06-26T06:43:28;8.43;;;3.45;;
56457;SDS011;42360;42.918;12.366;2023-06-26T06:45:53;5.30;;;3.65;;
56457;SDS011;42360;42.918;12.366;2023-06-26T06:48:19;5.45;;;3.35;;
56457;SDS011;42360;42.918;12.366;2023-06-26T06:50:44;5.68;;;3.50;;
56457;SDS011;42360;42.918;12.366;2023-06-26T06:53:10;5.03;;;3.42;;
56457;SDS011;42360;42.918;12.366;2023-06-26T06:55:35;4.85;;;3.92;;
56457;SDS011;42360;42.918;12.366;2023-06-26T06:58:00;5.70;;;3.33;;
56457;SDS011;42360;42.918;12.366;2023-06-26T07:00:26;6.05;;;3.90;;
56457;SDS011;42360;42.918;12.366;2023-06-26T07:02:52;6.78;;;3.60;;
56457;SDS011;42360;42.918;12.366;2023-06-26T07:05:18;5.82;;;3.63;;
56457;SDS011;42360;42.918;12.366;2023-06-26T07:07:43;4.60;;;3.50;;
56457;SDS011;42360;42.918;12.366;2023-06-26T07:10:10;5.78;;;3.15;;
56457;SDS011;42360;42.918;12.366;2023-06-26T07:12:37;5.80;;;3.85;;
56457;SDS011;42360;42.918;12.366;2023-06-26T07:15:03;4.03;;;3.25;;
56457;SDS011;42360;42.918;12.366;2023-06-26T07:17:30;5.43;;;3.67;;
56457;SDS011;42360;42.918;12.366;2023-06-26T07:19:56;4.10;;;3.42;;
56457;SDS011;42360;42.918;12.366;2023-06-26T07:22:22;4.63;;;3.25;;
56457;SDS011;42360;42.918;12.366;2023-06-26T07:24:48;5.53;;;3.75;;
56457;SDS011;42360;42.918;12.366;2023-06-26T07:27:16;3.92;;;3.53;;
56457;SDS011;42360;42.918;12.366;2023-06-26T07:29:45;6.47;;;3.53;;
56457;SDS011;42360;42.918;12.366;2023-06-26T07:32:11;3.63;;;3.17;;
56457;SDS011;42360;42.918;12.366;2023-06-26T07:34:37;5.10;;;3.50;;
56457;SDS011;42360;42.918;12.366;2023-06-26T07:37:02;4.90;;;3.33;;
56457;SDS011;42360;42.918;12.366;2023-06-26T07:39:28;4.00;;;3.60;;
56457;SDS011;42360;42.918;12.366;2023-06-26T07:41:54;3.92;;;3.40;;
56457;SDS011;42360;42.918;12.366;2023-06-26T07:44:19;3.92;;;3.10;;
56457;SDS011;42360;42.918;12.366;2023-06-26T07:46:45;5.35;;;3.65;;
56457;SDS011;42360;42.918;12.366;2023-06-26T07:49:10;5.47;;;3.70;;
56457;SDS011;42360;42.918;12.366;2023-06-26T07:51:36;4.72;;;3.45;;
56457;SDS011;42360;42.918;12.366;2023-06-26T07:54:02;4.32;;;3.17;;
56457;SDS011;42360;42.918;12.366;2023-06-26T07:56:28;4.10;;;3.65;;
56457;SDS011;42360;42.918;12.366;2023-06-26T07:58:54;5.82;;;3.35;;
56457;SDS011;42360;42.918;12.366;2023-06-26T08:01:19;5.25;;;3.60;;
56457;SDS011;42360;42.918;12.366;2023-06-26T08:03:45;3.90;;;3.38;;
56457;SDS011;42360;42.918;12.366;2023-06-26T08:06:10;4.22;;;3.83;;
56457;SDS011;42360;42.918;12.366;2023-06-26T08:08:35;6.43;;;4.05;;
56457;SDS011;42360;42.918;12.366;2023-06-26T08:11:01;5.22;;;3.63;;
56457;SDS011;42360;42.918;12.366;2023-06-26T08:13:26;3.33;;;3.03;;
56457;SDS011;42360;42.918;12.366;2023-06-26T08:15:52;5.28;;;3.78;;
56457;SDS011;42360;42.918;12.366;2023-06-26T08:18:18;5.95;;;3.72;;
56457;SDS011;42360;42.918;12.366;2023-06-26T08:20:43;4.07;;;3.45;;
56457;SDS011;42360;42.918;12.366;2023-06-26T08:23:09;5.10;;;4.07;;
56457;SDS011;42360;42.918;12.366;2023-06-26T08:25:34;5.18;;;4.32;;
56457;SDS011;42360;42.918;12.366;2023-06-26T08:28:00;4.97;;;3.60;;
56457;SDS011;42360;42.918;12.366;2023-06-26T08:30:25;5.10;;;3.88;;
56457;SDS011;42360;42.918;12.366;2023-06-26T08:32:54;5.45;;;3.83;;
56457;SDS011;42360;42.918;12.366;2023-06-26T08:35:20;4.40;;;3.58;;
56457;SDS011;42360;42.918;12.366;2023-06-26T08:37:45;4.20;;;3.72;;
56457;SDS011;42360;42.918;12.366;2023-06-26T08:40:11;4.03;;;3.25;;
56457;SDS011;42360;42.918;12.366;2023-06-26T08:42:37;4.45;;;3.70;;
56457;SDS011;42360;42.918;12.366;2023-06-26T08:45:03;5.18;;;4.18;;
56457;SDS011;42360;42.918;12.366;2023-06-26T08:47:29;4.53;;;4.07;;
56457;SDS011;42360;42.918;12.366;2023-06-26T08:52:45;4.28;;;3.88;;
56457;SDS011;42360;42.918;12.366;2023-06-26T08:55:33;4.82;;;3.75;;
56457;SDS011;42360;42.918;12.366;2023-06-26T08:58:01;4.63;;;3.85;;
56457;SDS011;42360;42.918;12.366;2023-06-26T09:00:26;5.55;;;3.80;;
56457;SDS011;42360;42.918;12.366;2023-06-26T09:02:52;5.55;;;3.60;;
56457;SDS011;42360;42.918;12.366;2023-06-26T09:05:18;6.45;;;3.50;;
56457;SDS011;42360;42.918;12.366;2023-06-26T09:07:44;4.60;;;3.42;;
56457;SDS011;42360;42.918;12.366;2023-06-26T09:10:10;5.72;;;4.10;;
56457;SDS011;42360;42.918;12.366;2023-06-26T09:12:36;4.97;;;3.88;;
56457;SDS011;42360;42.918;12.366;2023-06-26T09:15:02;4.53;;;3.78;;
56457;SDS011;42360;42.918;12.366;2023-06-26T09:17:30;4.07;;;3.67;;
56457;SDS011;42360;42.918;12.366;2023-06-26T09:19:58;5.10;;;3.83;;
56457;SDS011;42360;42.918;12.366;2023-06-26T09:22:23;6.18;;;4.15;;
56457;SDS011;42360;42.918;12.366;2023-06-26T09:24:49;4.40;;;3.97;;
56457;SDS011;42360;42.918;12.366;2023-06-26T09:27:15;4.78;;;4.00;;
56457;SDS011;42360;42.918;12.366;2023-06-26T09:29:41;4.95;;;4.45;;
56457;SDS011;42360;42.918;12.366;2023-06-26T09:32:08;6.75;;;3.78;;
56457;SDS011;42360;42.918;12.366;2023-06-26T09:34:34;3.72;;;3.28;;
56457;SDS011;42360;42.918;12.366;2023-06-26T09:37:00;5.03;;;3.95;;
56457;SDS011;42360;42.918;12.366;2023-06-26T09:39:30;7.30;;;3.92;;
56457;SDS011;42360;42.918;12.366;2023-06-26T09:41:56;6.65;;;3.88;;
56457;SDS011;42360;42.918;12.366;2023-06-26T09:44:22;5.05;;;4.03;;
56457;SDS011;42360;42.918;12.366;2023-06-26T09:46:48;3.95;;;3.63;;
56457;SDS011;42360;42.918;12.366;2023-06-26T09:49:13;4.45;;;3.75;;
56457;SDS011;42360;42.918;12.366;2023-06-26T09:51:40;4.70;;;3.80;;
56457;SDS011;42360;42.918;12.366;2023-06-26T09:54:06;4.80;;;4.30;;
56457;SDS011;42360;42.918;12.366;2023-06-26T09:56:33;4.82;;;3.90;;
56457;SDS011;42360;42.918;12.366;2023-06-26T09:58:59;4.65;;;3.70;;
56457;SDS011;42360;42.918;12.366;2023-06-26T10:01:28;5.07;;;3.60;;
56457;SDS011;42360;42.918;12.366;2023-06-26T10:03:55;4.65;;;3.80;;
56457;SDS011;42360;42.918;12.366;2023-06-26T10:06:25;4.82;;;3.67;;
56457;SDS011;42360;42.918;12.366;2023-06-26T10:08:54;3.80;;;3.40;;
56457;SDS011;42360;42.918;12.366;2023-06-26T10:11:21;5.63;;;3.70;;
56457;SDS011;42360;42.918;12.366;2023-06-26T10:13:49;4.28;;;3.80;;
56457;SDS011;42360;42.918;12.366;2023-06-26T10:16:23;4.80;;;3.20;;
56457;SDS011;42360;42.918;12.366;2023-06-26T10:18:56;3.78;;;3.38;;
56457;SDS011;42360;42.918;12.366;2023-06-26T10:21:24;4.80;;;3.65;;
56457;SDS011;42360;42.918;12.366;2023-06-26T10:23:52;3.67;;;3.38;;
56457;SDS011;42360;42.918;12.366;2023-06-26T10:26:19;4.45;;;3.83;;
56457;SDS011;42360;42.918;12.366;2023-06-26T10:28:46;4.00;;;3.47;;
56457;SDS011;42360;42.918;12.366;2023-06-26T10:31:15;3.47;;;3.03;;
56457;SDS011;42360;42.918;12.366;2023-06-26T10:33:41;4.72;;;3.40;;
56457;SDS011;42360;42.918;12.366;2023-06-26T10:36:16;4.07;;;3.20;;
56457;SDS011;42360;42.918;12.366;2023-06-26T10:41:20;4.80;;;3.15;;
56457;SDS011;42360;42.918;12.366;2023-06-26T10:44:06;4.80;;;3.20;;
56457;SDS011;42360;42.918;12.366;2023-06-26T10:46:55;3.85;;;3.00;;
56457;SDS011;42360;42.918;12.366;2023-06-26T10:49:25;3.67;;;3.15;;
56457;SDS011;42360;42.918;12.366;2023-06-26T10:51:53;3.58;;;3.28;;
56457;SDS011;42360;42.918;12.366;2023-06-26T10:54:21;3.92;;;3.25;;
56457;SDS011;42360;42.918;12.366;2023-06-26T10:56:50;3.97;;;3.22;;
56457;SDS011;42360;42.918;12.366;2023-06-26T11:01:44;4.00;;;3.60;;
56457;SDS011;42360;42.918;12.366;2023-06-26T11:04:11;3.58;;;3.05;;
56457;SDS011;42360;42.918;12.366;2023-06-26T11:06:39;4.18;;;3.45;;
56457;SDS011;42360;42.918;12.366;2023-06-26T11:14:18;4.78;;;3.58;;
56457;SDS011;42360;42.918;12.366;2023-06-26T11:16:44;3.85;;;3.45;;
56457;SDS011;42360;42.918;12.366;2023-06-26T11:19:10;3.85;;;3.45;;
56457;SDS011;42360;42.918;12.366;2023-06-26T11:21:37;3.60;;;3.30;;
56457;SDS011;42360;42.918;12.366;2023-06-26T11:24:03;3.97;;;3.58;;
56457;SDS011;42360;42.918;12.366;2023-06-26T11:26:31;3.65;;;3.28;;
56457;SDS011;42360;42.918;12.366;2023-06-26T11:29:06;4.10;;;3.70;;
56457;SDS011;42360;42.918;12.366;2023-06-26T11:31:36;3.42;;;3.13;;
56457;SDS011;42360;42.918;12.366;2023-06-26T11:34:03;4.72;;;3.47;;
56457;SDS011;42360;42.918;12.366;2023-06-26T11:36:31;3.92;;;3.17;;
56457;SDS011;42360;42.918;12.366;2023-06-26T11:39:00;8.07;;;7.47;;
56457;SDS011;42360;42.918;12.366;2023-06-26T11:41:30;3.35;;;3.05;;
56457;SDS011;42360;42.918;12.366;2023-06-26T11:43:59;4.03;;;3.35;;
56457;SDS011;42360;42.918;12.366;2023-06-26T11:46:29;4.00;;;3.50;;
56457;SDS011;42360;42.918;12.366;2023-06-26T11:48:55;3.45;;;3.15;;
56457;SDS011;42360;42.918;12.366;2023-06-26T11:51:21;3.47;;;3.13;;
56457;SDS011;42360;42.918;12.366;2023-06-26T11:53:46;4.20;;;3.13;;
56457;SDS011;42360;42.918;12.366;2023-06-26T11:56:13;3.00;;;2.67;;
56457;SDS011;42360;42.918;12.366;2023-06-26T11:58:56;3.63;;;3.20;;
56457;SDS011;42360;42.918;12.366;2023-06-26T12:01:22;3.28;;;2.95;;
56457;SDS011;42360;42.918;12.366;2023-06-26T12:03:48;3.78;;;3.35;;
56457;SDS011;42360;42.918;12.366;2023-06-26T12:06:14;3.75;;;3.33;;
56457;SDS011;42360;42.918;12.366;2023-06-26T12:08:40;3.60;;;3.30;;
56457;SDS011;42360;42.918;12.366;2023-06-26T12:11:06;3.80;;;3.50;;
56457;SDS011;42360;42.918;12.366;2023-06-26T12:13:31;5.65;;;3.72;;
56457;SDS011;42360;42.918;12.366;2023-06-26T12:15:57;4.60;;;3.35;;
56457;SDS011;42360;42.918;12.366;2023-06-26T12:18:23;4.53;;;3.75;;
56457;SDS011;42360;42.918;12.366;2023-06-26T12:20:50;3.65;;;3.35;;
56457;SDS011;42360;42.918;12.366;2023-06-26T12:23:16;4.72;;;3.55;;
56457;SDS011;42360;42.918;12.366;2023-06-26T12:25:42;4.30;;;3.30;;
56457;SDS011;42360;42.918;12.366;2023-06-26T12:28:17;3.45;;;3.15;;
56457;SDS011;42360;42.918;12.366;2023-06-26T12:30:46;4.70;;;3.80;;
56457;SDS011;42360;42.918;12.366;2023-06-26T12:33:14;4.65;;;4.25;;
56457;SDS011;42360;42.918;12.366;2023-06-26T12:35:40;4.18;;;3.40;;
56457;SDS011;42360;42.918;12.366;2023-06-26T12:38:07;3.50;;;3.20;;
56457;SDS011;42360;42.918;12.366;2023-06-26T12:40:35;4.38;;;3.97;;
56457;SDS011;42360;42.918;12.366;2023-06-26T12:43:02;3.78;;;3.38;;
56457;SDS011;42360;42.918;12.366;2023-06-26T12:45:27;5.57;;;4.63;;
56457;SDS011;42360;42.918;12.366;2023-06-26T12:48:12;3.63;;;3.33;;
56457;SDS011;42360;42.918;12.366;2023-06-26T12:50:44;4.15;;;3.38;;
56457;SDS011;42360;42.918;12.366;2023-06-26T12:53:10;5.20;;;3.95;;
56457;SDS011;42360;42.918;12.366;2023-06-26T12:55:35;3.47;;;3.17;;
56457;SDS011;42360;42.918;12.366;2023-06-26T12:58:01;4.80;;;3.75;;
56457;SDS011;42360;42.918;12.366;2023-06-26T13:00:27;3.83;;;3.47;;
56457;SDS011;42360;42.918;12.366;2023-06-26T13:02:52;3.85;;;3.45;;
56457;SDS011;42360;42.918;12.366;2023-06-26T13:05:18;4.03;;;3.42;;
56457;SDS011;42360;42.918;12.366;2023-06-26T13:07:43;4.55;;;3.95;;
56457;SDS011;42360;42.918;12.366;2023-06-26T13:10:08;4.03;;;3.63;;
56457;SDS011;42360;42.918;12.366;2023-06-26T13:12:34;4.63;;;3.80;;
56457;SDS011;42360;42.918;12.366;2023-06-26T13:15:00;5.43;;;3.70;;
56457;SDS011;42360;42.918;12.366;2023-06-26T13:17:25;5.78;;;3.80;;
56457;SDS011;42360;42.918;12.366;2023-06-26T13:19:51;4.45;;;3.72;;
56457;SDS011;42360;42.918;12.366;2023-06-26T13:22:16;4.45;;;3.67;;
56457;SDS011;42360;42.918;12.366;2023-06-26T13:24:42;4.57;;;3.58;;
56457;SDS011;42360;42.918;12.366;2023-06-26T13:27:11;5.00;;;3.73;;
56457;SDS011;42360;42.918;12.366;2023-06-26T13:29:36;4.95;;;3.75;;
56457;SDS011;42360;42.918;12.366;2023-06-26T13:32:02;4.20;;;3.72;;
56457;SDS011;42360;42.918;12.366;2023-06-26T13:34:28;4.20;;;3.20;;
56457;SDS011;42360;42.918;12.366;2023-06-26T13:36:54;3.95;;;3.65;;
56457;SDS011;42360;42.918;12.366;2023-06-26T13:39:19;4.15;;;3.75;;
56457;SDS011;42360;42.918;12.366;2023-06-26T13:41:45;4.35;;;3.75;;
56457;SDS011;42360;42.918;12.366;2023-06-26T13:44:11;4.03;;;3.63;;
56457;SDS011;42360;42.918;12.366;2023-06-26T13:46:36;5.35;;;3.92;;
56457;SDS011;42360;42.918;12.366;2023-06-26T13:49:02;5.43;;;4.30;;
56457;SDS011;42360;42.918;12.366;2023-06-26T13:51:27;5.88;;;4.10;;
56457;SDS011;42360;42.918;12.366;2023-06-26T13:53:53;5.80;;;3.75;;
56457;SDS011;42360;42.918;12.366;2023-06-26T13:56:20;4.18;;;3.50;;
56457;SDS011;42360;42.918;12.366;2023-06-26T13:58:45;5.10;;;3.85;;
56457;SDS011;42360;42.918;12.366;2023-06-26T14:01:11;5.47;;;3.85;;
56457;SDS011;42360;42.918;12.366;2023-06-26T14:03:37;4.55;;;3.78;;
56457;SDS011;42360;42.918;12.366;2023-06-26T14:06:03;4.20;;;3.80;;
56457;SDS011;42360;42.918;12.366;2023-06-26T14:08:29;4.30;;;3.90;;
56457;SDS011;42360;42.918;12.366;2023-06-26T14:10:54;5.05;;;3.75;;
56457;SDS011;42360;42.918;12.366;2023-06-26T14:13:20;4.40;;;4.00;;
56457;SDS011;42360;42.918;12.366;2023-06-26T14:15:45;5.88;;;3.67;;
56457;SDS011;42360;42.918;12.366;2023-06-26T14:18:11;7.20;;;3.80;;
56457;SDS011;42360;42.918;12.366;2023-06-26T14:20:36;4.25;;;3.92;;
56457;SDS011;42360;42.918;12.366;2023-06-26T14:23:02;4.35;;;3.90;;
56457;SDS011;42360;42.918;12.366;2023-06-26T14:25:27;4.28;;;3.83;;
56457;SDS011;42360;42.918;12.366;2023-06-26T14:27:54;4.15;;;3.75;;
56457;SDS011;42360;42.918;12.366;2023-06-26T14:30:23;5.13;;;4.30;;
56457;SDS011;42360;42.918;12.366;2023-06-26T14:32:48;4.57;;;3.55;;
56457;SDS011;42360;42.918;12.366;2023-06-26T14:35:14;4.10;;;3.70;;
56457;SDS011;42360;42.918;12.366;2023-06-26T14:37:40;4.00;;;3.70;;
56457;SDS011;42360;42.918;12.366;2023-06-26T14:40:07;5.68;;;4.20;;
56457;SDS011;42360;42.918;12.366;2023-06-26T14:42:33;4.22;;;3.83;;
56457;SDS011;42360;42.918;12.366;2023-06-26T14:44:58;4.30;;;3.80;;
56457;SDS011;42360;42.918;12.366;2023-06-26T14:47:24;5.40;;;4.10;;
56457;SDS011;42360;42.918;12.366;2023-06-26T14:49:49;4.30;;;3.90;;